createdAt,value
2018-04-27T00:00:04.811Z,8.70
2018-04-27T00:02:33.060Z,8.60
2018-04-27T00:05:00.539Z,8.60
2018-04-27T00:07:28.103Z,8.50
2018-04-27T00:09:56.347Z,8.20
2018-04-27T00:12:23.839Z,8.20
2018-04-27T00:14:52.101Z,8.20
2018-04-27T00:17:19.864Z,8.20
2018-04-27T00:19:47.339Z,8.10
2018-04-27T00:22:15.578Z,8.00
2018-04-27T00:24:43.080Z,7.90
2018-04-27T00:27:11.351Z,7.80
2018-04-27T00:29:39.611Z,7.70
2018-04-27T00:32:07.193Z,7.60
2018-04-27T00:34:35.450Z,7.60
2018-04-27T00:37:02.936Z,7.60
2018-04-27T00:39:30.404Z,7.60
2018-04-27T00:41:57.901Z,7.60
2018-04-27T00:44:25.396Z,7.50
2018-04-27T00:46:53.652Z,7.40
2018-04-27T00:49:21.128Z,7.40
2018-04-27T00:51:49.435Z,7.40
2018-04-27T00:54:16.926Z,7.40
2018-04-27T00:56:44.394Z,7.40
2018-04-27T00:59:11.894Z,7.40
2018-04-27T01:01:39.373Z,7.40
2018-04-27T01:04:06.892Z,7.30
2018-04-27T01:06:35.161Z,7.30
2018-04-27T01:09:03.422Z,7.40
2018-04-27T01:11:30.922Z,7.40
2018-04-27T01:13:58.411Z,7.40
2018-04-27T01:16:25.915Z,7.40
2018-04-27T01:18:54.168Z,7.50
2018-04-27T01:21:21.682Z,7.40
2018-04-27T01:23:49.206Z,7.50
2018-04-27T01:26:17.465Z,7.50
2018-04-27T01:28:45.057Z,7.50
2018-04-27T01:31:13.305Z,7.50
2018-04-27T01:33:40.981Z,7.50
2018-04-27T01:36:09.257Z,7.50
2018-04-27T01:38:37.525Z,7.40
2018-04-27T01:41:05.768Z,7.40
2018-04-27T01:43:33.264Z,7.30
2018-04-27T01:46:01.519Z,7.30
2018-04-27T01:48:29.008Z,7.30
2018-04-27T01:50:57.273Z,7.20
2018-04-27T01:53:25.528Z,7.20
2018-04-27T01:55:53.120Z,7.20
2018-04-27T01:58:21.426Z,7.10
2018-04-27T02:00:48.906Z,7.10
2018-04-27T02:03:16.386Z,7.00
2018-04-27T02:05:43.900Z,7.00
2018-04-27T02:08:11.385Z,7.00
2018-04-27T02:10:38.870Z,6.90
2018-04-27T02:13:06.373Z,6.90
2018-04-27T02:15:33.849Z,6.80
2018-04-27T02:18:01.456Z,6.80
2018-04-27T02:20:29.698Z,6.80
2018-04-27T02:22:57.203Z,6.70
2018-04-27T02:25:24.682Z,6.70
2018-04-27T02:27:52.162Z,6.70
2018-04-27T02:30:19.652Z,6.60
2018-04-27T02:32:47.913Z,6.60
2018-04-27T02:35:15.421Z,6.60
2018-04-27T02:37:42.909Z,6.70
2018-04-27T02:40:10.421Z,6.70
2018-04-27T02:42:38.661Z,6.70
2018-04-27T02:45:06.157Z,6.70
2018-04-27T02:47:34.413Z,6.60
2018-04-27T02:50:02.652Z,6.60
2018-04-27T02:52:30.163Z,6.60
2018-04-27T02:54:58.439Z,6.60
2018-04-27T02:57:26.715Z,6.50
2018-04-27T02:59:54.968Z,6.50
2018-04-27T03:02:22.532Z,6.50
2018-04-27T03:04:50.004Z,6.50
2018-04-27T03:07:18.265Z,6.50
2018-04-27T03:09:45.743Z,6.50
2018-04-27T03:12:13.516Z,6.60
2018-04-27T03:14:40.989Z,6.70
2018-04-27T03:17:08.465Z,6.70
2018-04-27T03:19:35.988Z,6.70
2018-04-27T03:22:03.484Z,6.80
2018-04-27T03:24:31.108Z,6.80
2018-04-27T03:26:59.368Z,6.80
2018-04-27T03:29:27.652Z,6.80
2018-04-27T03:31:55.910Z,6.80
2018-04-27T03:34:23.514Z,6.70
2018-04-27T03:36:51.038Z,6.80
2018-04-27T03:39:21.797Z,6.90
2018-04-27T03:41:49.314Z,6.90
2018-04-27T03:44:16.802Z,6.90
2018-04-27T03:46:45.089Z,7.00
2018-04-27T03:49:12.614Z,6.90
2018-04-27T03:51:40.134Z,7.00
2018-04-27T03:54:07.615Z,7.00
2018-04-27T03:56:35.096Z,6.90
2018-04-27T03:59:02.580Z,7.00
2018-04-27T04:01:41.882Z,7.10
2018-04-27T04:04:21.955Z,7.10
2018-04-27T04:06:49.504Z,7.10
2018-04-27T04:09:17.772Z,7.10
2018-04-27T04:11:46.092Z,7.10
2018-04-27T04:14:13.718Z,7.00
2018-04-27T04:16:41.952Z,7.10
2018-04-27T04:19:09.468Z,7.10
2018-04-27T04:21:36.970Z,7.00
2018-04-27T04:24:04.445Z,7.00
2018-04-27T04:26:31.936Z,7.00
2018-04-27T04:28:59.444Z,7.00
2018-04-27T04:31:27.332Z,7.00
2018-04-27T04:33:54.908Z,7.00
2018-04-27T04:36:22.380Z,7.00
2018-04-27T04:38:50.627Z,7.10
2018-04-27T04:41:18.883Z,7.20
2018-04-27T04:43:46.364Z,7.20
2018-04-27T04:46:14.649Z,7.40
2018-04-27T04:48:42.940Z,7.40
2018-04-27T04:51:10.476Z,7.40
2018-04-27T04:53:38.767Z,7.40
2018-04-27T04:56:07.030Z,7.30
2018-04-27T04:58:35.277Z,7.30
2018-04-27T05:01:02.762Z,7.30
2018-04-27T05:03:30.258Z,7.30
2018-04-27T05:05:57.742Z,7.30
2018-04-27T05:08:25.237Z,7.10
2018-04-27T05:10:52.797Z,7.00
2018-04-27T05:13:20.221Z,7.00
2018-04-27T05:15:48.444Z,7.00
2018-04-27T05:21:25.397Z,7.40
2018-04-27T05:23:52.980Z,7.70
2018-04-27T05:26:30.359Z,7.90
2018-04-27T05:28:59.375Z,8.20
2018-04-27T05:31:27.625Z,8.10
2018-04-27T05:33:55.185Z,8.10
2018-04-27T05:36:22.673Z,8.30
2018-04-27T05:38:50.953Z,9.00
2018-04-27T05:41:19.200Z,9.40
2018-04-27T05:43:46.814Z,9.30
2018-04-27T05:46:14.292Z,9.40
2018-04-27T05:48:41.790Z,9.60
2018-04-27T05:51:09.255Z,9.90
2018-04-27T05:53:37.545Z,10.20
2018-04-27T05:56:05.830Z,10.10
2018-04-27T05:58:34.080Z,10.00
2018-04-27T06:01:02.331Z,10.20
2018-04-27T06:03:41.885Z,10.20
2018-04-27T06:06:10.180Z,10.10
2018-04-27T06:08:38.587Z,10.00
2018-04-27T06:11:06.151Z,10.00
2018-04-27T06:13:33.645Z,10.10
2018-04-27T06:16:01.146Z,10.00
2018-04-27T06:18:28.721Z,10.00
2018-04-27T06:20:56.249Z,10.20
2018-04-27T06:23:24.618Z,10.40
2018-04-27T06:25:52.897Z,10.50
2018-04-27T06:28:21.137Z,10.50
2018-04-27T06:30:48.805Z,10.50
2018-04-27T06:33:16.313Z,10.50
2018-04-27T06:35:43.857Z,11.00
2018-04-27T06:38:12.128Z,11.70
2018-04-27T06:40:40.373Z,11.80
2018-04-27T06:43:07.858Z,11.80
2018-04-27T06:45:36.109Z,12.00
2018-04-27T06:48:03.602Z,12.00
2018-04-27T06:50:31.889Z,12.10
2018-04-27T06:52:59.566Z,12.10
2018-04-27T06:55:27.042Z,12.20
2018-04-27T06:57:54.600Z,12.20
2018-04-27T07:00:22.084Z,12.20
2018-04-27T07:02:49.564Z,11.90
2018-04-27T07:05:17.850Z,11.60
2018-04-27T07:07:46.112Z,11.50
2018-04-27T07:10:14.528Z,11.50
2018-04-27T07:12:42.060Z,11.40
2018-04-27T07:15:10.321Z,11.80
2018-04-27T07:17:37.819Z,11.70
2018-04-27T07:20:05.318Z,11.70
2018-04-27T07:22:32.899Z,11.60
2018-04-27T07:25:00.412Z,11.80
2018-04-27T07:27:28.046Z,12.00
2018-04-27T07:29:56.282Z,12.10
2018-04-27T07:32:24.501Z,12.10
2018-04-27T07:34:52.024Z,12.10
2018-04-27T07:37:20.259Z,12.20
2018-04-27T07:39:47.794Z,12.20
2018-04-27T07:42:15.946Z,12.70
2018-04-27T07:44:44.197Z,13.30
2018-04-27T07:47:11.664Z,13.20
2018-04-27T07:49:39.936Z,13.70
2018-04-27T07:52:08.196Z,13.80
2018-04-27T07:54:35.901Z,13.80
2018-04-27T07:57:03.498Z,13.80
2018-04-27T07:59:30.971Z,13.80
2018-04-27T08:01:58.481Z,13.80
2018-04-27T08:04:25.970Z,13.90
2018-04-27T08:06:53.482Z,14.30
2018-04-27T08:09:20.971Z,14.50
2018-04-27T08:11:49.036Z,15.00
2018-04-27T08:14:16.523Z,15.10
2018-04-27T08:16:44.121Z,15.10
2018-04-27T08:19:11.684Z,15.00
2018-04-27T08:21:39.177Z,14.50
2018-04-27T08:24:06.671Z,14.50
2018-04-27T08:26:34.154Z,14.90
2018-04-27T08:29:03.566Z,15.20
2018-04-27T08:31:31.144Z,15.10
2018-04-27T08:33:58.626Z,15.20
2018-04-27T08:36:26.138Z,15.00
2018-04-27T08:38:53.633Z,15.00
2018-04-27T08:41:21.165Z,15.20
2018-04-27T08:43:48.727Z,15.60
2018-04-27T08:46:16.208Z,15.60
2018-04-27T08:48:43.724Z,15.50
2018-04-27T08:51:11.308Z,15.60
2018-04-27T08:53:38.870Z,15.60
2018-04-27T08:56:06.340Z,15.70
2018-04-27T08:58:33.885Z,16.10
2018-04-27T09:01:01.412Z,16.60
2018-04-27T09:03:28.989Z,16.50
2018-04-27T09:05:56.507Z,16.50
2018-04-27T09:08:24.601Z,16.50
2018-04-27T09:10:52.093Z,16.40
2018-04-27T09:13:19.574Z,16.40
2018-04-27T09:15:47.075Z,16.80
2018-04-27T09:18:14.580Z,17.00
2018-04-27T09:20:42.088Z,17.30
2018-04-27T09:23:09.608Z,17.50
2018-04-27T09:25:37.105Z,17.50
2018-04-27T09:28:04.724Z,17.40
2018-04-27T09:30:32.949Z,17.40
2018-04-27T09:33:00.482Z,17.50
2018-04-27T09:35:28.737Z,17.30
2018-04-27T09:37:56.317Z,17.30
2018-04-27T09:40:24.636Z,17.00
2018-04-27T09:42:52.139Z,17.00
2018-04-27T09:45:19.804Z,17.00
2018-04-27T09:47:48.061Z,17.00
2018-04-27T09:50:16.350Z,17.20
2018-04-27T09:52:43.903Z,17.20
2018-04-27T09:55:11.493Z,17.10
2018-04-27T09:57:39.827Z,17.10
2018-04-27T10:00:07.340Z,17.10
2018-04-27T10:02:34.832Z,17.20
2018-04-27T10:05:02.346Z,17.30
2018-04-27T10:07:29.835Z,17.10
2018-04-27T10:09:57.342Z,17.00
2018-04-27T10:12:25.634Z,17.30
2018-04-27T10:14:53.987Z,17.50
2018-04-27T10:17:21.595Z,17.50
2018-04-27T10:19:49.107Z,17.60
2018-04-27T10:22:16.695Z,17.60
2018-04-27T10:24:44.980Z,18.10
2018-04-27T10:27:12.536Z,18.10
2018-04-27T10:29:40.070Z,17.80
2018-04-27T10:32:08.362Z,17.30
2018-04-27T10:34:35.889Z,17.30
2018-04-27T10:37:03.435Z,17.30
2018-04-27T10:39:30.961Z,17.30
2018-04-27T10:41:58.624Z,17.60
2018-04-27T10:44:26.160Z,17.60
2018-04-27T10:46:54.395Z,17.60
2018-04-27T10:49:21.864Z,17.60
2018-04-27T10:51:49.406Z,17.50
2018-04-27T10:54:16.893Z,17.20
2018-04-27T10:56:45.276Z,16.90
2018-04-27T10:59:13.543Z,16.70
2018-04-27T11:01:41.028Z,16.70
2018-04-27T11:04:08.579Z,16.90
2018-04-27T11:06:36.156Z,16.80
2018-04-27T11:09:03.632Z,17.00
2018-04-27T11:11:31.592Z,16.90
2018-04-27T11:13:59.123Z,16.90
2018-04-27T11:16:26.656Z,17.10
2018-04-27T11:18:54.948Z,17.40
2018-04-27T11:21:23.192Z,17.50
2018-04-27T11:23:51.480Z,17.50
2018-04-27T11:26:18.975Z,17.60
2018-04-27T11:28:46.467Z,17.70
2018-04-27T11:31:13.986Z,17.50
2018-04-27T11:33:41.486Z,17.50
2018-04-27T11:36:08.968Z,17.30
2018-04-27T11:38:36.568Z,17.50
2018-04-27T11:41:04.845Z,17.60
2018-04-27T11:43:32.378Z,17.60
2018-04-27T11:46:01.214Z,17.60
2018-04-27T11:48:28.772Z,17.60
2018-04-27T11:50:56.295Z,17.60
2018-04-27T11:53:24.550Z,17.70
2018-04-27T11:55:53.020Z,17.80
2018-04-27T11:58:20.502Z,17.80
2018-04-27T12:00:48.842Z,17.80
2018-04-27T12:03:16.338Z,17.80
2018-04-27T12:05:44.682Z,17.60
2018-04-27T12:08:12.581Z,17.60
2018-04-27T12:10:40.910Z,17.30
2018-04-27T12:13:08.466Z,17.30
2018-04-27T12:15:35.947Z,17.50
2018-04-27T12:18:03.452Z,17.70
2018-04-27T12:20:30.987Z,17.80
2018-04-27T12:22:59.324Z,17.50
2018-04-27T12:25:26.847Z,17.50
2018-04-27T12:27:54.368Z,17.30
2018-04-27T12:30:21.878Z,17.50
2018-04-27T12:32:49.383Z,17.70
2018-04-27T12:35:17.046Z,17.40
2018-04-27T12:37:44.634Z,17.30
2018-04-27T12:40:12.866Z,17.40
2018-04-27T12:42:40.355Z,17.40
2018-04-27T12:45:08.647Z,17.30
2018-04-27T12:47:36.096Z,17.30
2018-04-27T12:50:04.472Z,17.10
2018-04-27T12:52:32.738Z,17.30
2018-04-27T12:55:01.029Z,17.40
2018-04-27T12:57:29.689Z,17.40
2018-04-27T12:59:57.205Z,17.40
2018-04-27T13:02:24.725Z,17.20
2018-04-27T13:04:52.997Z,17.00
2018-04-27T13:07:21.270Z,17.10
2018-04-27T13:09:49.554Z,17.30
2018-04-27T13:12:17.830Z,17.30
2018-04-27T13:14:46.106Z,17.50
2018-04-27T13:17:14.356Z,17.50
2018-04-27T13:19:41.874Z,17.50
2018-04-27T13:22:09.364Z,17.40
2018-04-27T13:24:36.938Z,17.30
2018-04-27T13:27:05.255Z,17.50
2018-04-27T13:29:32.756Z,17.50
2018-04-27T13:32:00.267Z,17.70
2018-04-27T13:34:27.900Z,17.50
2018-04-27T13:36:56.903Z,17.40
2018-04-27T13:39:25.236Z,17.40
2018-04-27T13:41:52.709Z,17.40
2018-04-27T13:44:20.240Z,17.60
2018-04-27T13:46:47.751Z,17.60
2018-04-27T13:49:16.017Z,17.70
2018-04-27T13:51:44.318Z,17.70
2018-04-27T13:54:11.808Z,17.70
2018-04-27T13:56:39.326Z,17.60
2018-04-27T13:59:07.580Z,17.70
2018-04-27T14:01:35.196Z,17.70
2018-04-27T14:04:02.714Z,17.80
2018-04-27T14:06:31.108Z,18.00
2018-04-27T14:08:59.403Z,17.80
2018-04-27T14:11:26.990Z,17.80
2018-04-27T14:13:54.559Z,17.70
2018-04-27T14:16:22.502Z,17.80
2018-04-27T14:18:50.097Z,18.00
2018-04-27T14:21:17.578Z,17.80
2018-04-27T14:23:45.831Z,17.90
2018-04-27T14:26:13.323Z,17.80
2018-04-27T14:28:41.024Z,17.80
2018-04-27T14:31:08.544Z,17.80
2018-04-27T14:33:36.051Z,17.80
2018-04-27T14:36:03.552Z,17.70
2018-04-27T14:38:31.854Z,17.80
2018-04-27T14:40:59.395Z,17.80
2018-04-27T14:43:26.822Z,17.80
2018-04-27T14:45:54.396Z,17.80
2018-04-27T14:48:22.780Z,17.90
2018-04-27T14:50:51.086Z,17.90
2018-04-27T14:53:18.602Z,17.90
2018-04-27T14:55:46.871Z,17.90
2018-04-27T14:58:14.350Z,17.90
2018-04-27T15:00:42.620Z,17.90
2018-04-27T15:03:10.874Z,18.00
2018-04-27T15:05:38.481Z,18.00
2018-04-27T15:08:05.968Z,18.00
2018-04-27T15:10:33.468Z,18.10
2018-04-27T15:13:01.708Z,18.20
2018-04-27T15:15:29.241Z,18.20
2018-04-27T15:17:56.750Z,18.20
2018-04-27T15:20:24.983Z,18.20
2018-04-27T15:22:52.531Z,18.20
2018-04-27T15:25:20.069Z,18.20
2018-04-27T15:27:47.559Z,18.30
2018-04-27T15:30:15.046Z,18.20
2018-04-27T15:32:42.600Z,18.20
2018-04-27T15:35:10.088Z,18.10
2018-04-27T15:37:38.355Z,18.20
2018-04-27T15:40:05.859Z,18.20
2018-04-27T15:42:34.080Z,18.30
2018-04-27T15:45:01.680Z,18.30
2018-04-27T15:47:29.216Z,18.30
2018-04-27T15:49:57.460Z,18.30
2018-04-27T15:52:25.052Z,18.30
2018-04-27T15:54:53.341Z,18.30
2018-04-27T15:57:21.692Z,18.30
2018-04-27T15:59:49.181Z,18.30
2018-04-27T16:02:16.752Z,18.30
2018-04-27T16:04:44.244Z,18.30
2018-04-27T16:07:11.828Z,18.40
2018-04-27T16:09:40.230Z,18.40
2018-04-27T16:12:08.498Z,18.40
2018-04-27T16:14:36.774Z,18.40
2018-04-27T16:17:05.044Z,18.40
2018-04-27T16:19:33.331Z,18.30
2018-04-27T16:22:01.595Z,18.30
2018-04-27T16:24:29.145Z,18.30
2018-04-27T16:26:56.640Z,18.30
2018-04-27T16:29:24.130Z,18.30
2018-04-27T16:31:51.656Z,18.30
2018-04-27T16:34:19.182Z,18.30
2018-04-27T16:36:47.430Z,18.30
2018-04-27T16:39:14.958Z,18.30
2018-04-27T16:41:42.477Z,18.30
2018-04-27T16:44:10.025Z,18.20
2018-04-27T16:46:37.616Z,18.20
2018-04-27T16:49:05.892Z,18.20
2018-04-27T16:51:34.162Z,18.20
2018-04-27T16:54:14.227Z,18.20
2018-04-27T16:56:41.731Z,18.20
2018-04-27T16:59:09.337Z,18.20
2018-04-27T17:01:37.616Z,18.20
2018-04-27T17:04:05.872Z,18.20
2018-04-27T17:06:34.200Z,18.20
2018-04-27T17:09:02.576Z,18.20
2018-04-27T17:11:30.057Z,18.10
2018-04-27T17:13:57.899Z,18.20
2018-04-27T17:16:25.389Z,18.10
2018-04-27T17:18:52.879Z,18.20
2018-04-27T17:21:21.161Z,18.20
2018-04-27T17:23:49.469Z,18.20
2018-04-27T17:26:16.965Z,18.20
2018-04-27T17:28:44.498Z,18.20
2018-04-27T17:31:12.039Z,18.20
2018-04-27T17:33:39.533Z,18.20
2018-04-27T17:36:07.089Z,18.20
2018-04-27T17:38:34.686Z,18.10
2018-04-27T17:41:02.954Z,18.00
2018-04-27T17:43:31.299Z,17.90
2018-04-27T17:45:58.754Z,17.90
2018-04-27T17:48:26.247Z,17.90
2018-04-27T17:50:54.904Z,17.80
2018-04-27T17:53:22.398Z,17.70
2018-04-27T17:55:50.696Z,17.70
2018-04-27T17:58:20.214Z,17.70
2018-04-27T18:00:48.290Z,17.70
2018-04-27T18:03:15.796Z,17.70
2018-04-27T18:05:44.196Z,17.60
2018-04-27T18:08:13.591Z,17.60
2018-04-27T18:10:41.368Z,17.60
2018-04-27T18:13:09.896Z,17.50
2018-04-27T18:15:37.737Z,17.50
2018-04-27T18:18:06.527Z,17.40
2018-04-27T18:20:34.453Z,17.40
2018-04-27T18:23:04.104Z,17.30
2018-04-27T18:25:31.852Z,17.30
2018-04-27T18:27:59.350Z,17.30
2018-04-27T18:30:26.854Z,17.30
2018-04-27T18:32:55.160Z,17.20
2018-04-27T18:35:22.870Z,17.10
2018-04-27T18:37:52.108Z,17.00
2018-04-27T18:40:19.935Z,17.10
2018-04-27T18:42:47.433Z,17.00
2018-04-27T18:45:16.437Z,16.80
2018-04-27T18:47:44.138Z,16.70
2018-04-27T18:50:12.427Z,16.90
2018-04-27T18:52:41.031Z,16.90
2018-04-27T18:55:09.764Z,16.90
2018-04-27T18:57:37.228Z,16.90
2018-04-27T19:00:15.430Z,16.80
2018-04-27T19:02:43.076Z,16.80
2018-04-27T19:05:10.722Z,16.70
2018-04-27T19:07:38.208Z,16.60
2018-04-27T19:10:06.531Z,16.50
2018-04-27T19:12:36.764Z,16.40
2018-04-27T19:15:30.000Z,16.30
2018-04-27T19:18:02.734Z,16.30
2018-04-27T19:20:40.330Z,16.40
2018-04-27T19:23:07.864Z,16.40
2018-04-27T19:25:47.373Z,16.40
2018-04-27T19:28:16.018Z,16.40
2018-04-27T19:30:44.352Z,16.30
2018-04-27T19:33:12.641Z,16.20
2018-04-27T19:35:40.125Z,16.20
2018-04-27T19:38:07.598Z,16.20
2018-04-27T19:40:35.221Z,16.20
2018-04-27T19:43:14.372Z,16.20
2018-04-27T19:45:41.822Z,16.20
2018-04-27T19:48:09.310Z,16.20
2018-04-27T19:50:38.147Z,16.20
2018-04-27T19:53:16.800Z,16.20
2018-04-27T19:55:44.286Z,16.20
2018-04-27T19:58:12.114Z,16.10
2018-04-27T20:00:40.282Z,16.10
2018-04-27T20:03:07.790Z,16.10
2018-04-27T20:05:44.070Z,16.10
2018-04-27T20:08:12.312Z,16.00
2018-04-27T20:10:40.703Z,16.00
2018-04-27T20:13:12.188Z,15.90
2018-04-27T20:15:39.688Z,15.90
2018-04-27T20:18:12.057Z,15.80
2018-04-27T20:20:41.060Z,15.70
2018-04-27T20:23:08.572Z,15.70
2018-04-27T20:25:36.082Z,15.70
2018-04-27T20:28:05.176Z,15.60
2018-04-27T20:30:32.798Z,15.50
2018-04-27T20:33:00.300Z,15.40
2018-04-27T20:35:29.466Z,15.40
2018-04-27T20:38:02.641Z,15.30
2018-04-27T20:40:30.964Z,15.30
2018-04-27T20:43:08.371Z,15.30
2018-04-27T20:45:35.855Z,15.30
2018-04-27T20:48:04.951Z,15.30
2018-04-27T20:50:32.499Z,15.30
2018-04-27T20:53:02.902Z,15.20
2018-04-27T20:55:31.376Z,15.20
2018-04-27T20:57:59.385Z,15.20
2018-04-27T21:00:29.768Z,15.20
2018-04-27T21:02:57.276Z,15.20
2018-04-27T21:05:24.788Z,15.20
2018-04-27T21:07:52.398Z,15.20
2018-04-27T21:10:19.881Z,15.20
2018-04-27T21:12:47.505Z,15.10
2018-04-27T21:15:15.020Z,15.20
2018-04-27T21:17:45.446Z,15.20
2018-04-27T21:20:15.513Z,15.10
2018-04-27T21:22:43.774Z,15.10
2018-04-27T21:25:12.055Z,15.10
2018-04-27T21:27:43.225Z,15.20
2018-04-27T21:30:12.670Z,15.10
2018-04-27T21:32:40.957Z,15.20
2018-04-27T21:35:08.723Z,15.20
2018-04-27T21:37:36.980Z,15.20
2018-04-27T21:40:04.500Z,15.20
2018-04-27T21:42:32.044Z,15.30
2018-04-27T21:44:59.592Z,15.30
2018-04-27T21:50:23.343Z,15.30
2018-04-27T21:52:53.284Z,15.30
2018-04-27T21:55:22.644Z,15.40
2018-04-27T21:57:52.182Z,15.40
2018-04-27T22:00:22.256Z,15.40
2018-04-27T22:05:57.007Z,15.40
2018-04-27T22:08:35.425Z,15.40
2018-04-27T22:11:08.925Z,15.40
2018-04-27T22:13:36.484Z,15.30
2018-04-27T22:16:04.077Z,15.20
2018-04-27T22:18:34.373Z,15.10
2018-04-27T22:21:01.892Z,15.00
2018-04-27T22:23:30.228Z,14.90
2018-04-27T22:25:58.639Z,14.80
2018-04-27T22:28:30.446Z,14.70
2018-04-27T22:30:58.727Z,14.70
2018-04-27T22:33:30.017Z,14.70
2018-04-27T22:36:20.877Z,14.70
2018-04-27T22:38:48.368Z,14.70
2018-04-27T22:41:16.604Z,14.70
2018-04-27T22:43:56.702Z,14.70
2018-04-27T22:46:24.972Z,14.70
2018-04-27T22:48:54.501Z,14.70
2018-04-27T22:51:23.468Z,14.70
2018-04-27T22:53:51.844Z,14.70
2018-04-27T22:56:24.840Z,14.70
2018-04-27T22:58:53.106Z,14.50
2018-04-27T23:01:21.955Z,14.50
2018-04-27T23:03:49.424Z,14.40
2018-04-27T23:06:16.920Z,14.20
2018-04-27T23:08:47.142Z,13.90
2018-04-27T23:11:21.419Z,13.90
2018-04-27T23:14:08.057Z,13.80
2018-04-27T23:16:36.331Z,13.70
2018-04-27T23:19:06.741Z,13.70
2018-04-27T23:21:37.087Z,13.70
2018-04-27T23:24:04.563Z,13.70
2018-04-27T23:26:32.175Z,13.70
2018-04-27T23:28:59.771Z,13.70
2018-04-27T23:31:28.041Z,13.70
2018-04-27T23:33:56.353Z,13.70
2018-04-27T23:36:23.846Z,13.60
2018-04-27T23:38:51.349Z,13.70
2018-04-27T23:41:19.001Z,13.70
2018-04-27T23:43:47.280Z,13.70
2018-04-27T23:46:16.594Z,13.60
2018-04-27T23:48:44.652Z,13.60
2018-04-27T23:51:12.921Z,13.60
2018-04-27T23:53:41.165Z,13.50
2018-04-27T23:56:08.689Z,13.50
2018-04-27T23:58:36.176Z,13.50
